Time;durP1;ratioP1;P1;durP2;ratioP2;P2;SDS_P1;SDS_P2;PMS_P1;PMS_P2;Temp;Humidity;BMP_temperature;BMP_pressure;BME280_temperature;BME280_humidity;BME280_pressure;Samples;Min_cycle;Max_cycle;Signal;HPM_P1;HPM_P2
2022/03/02 00:08:58;;;;;;;3.83;1.50;;;-3.10;92.60;;;;;;21067330;28;20027;-55
2022/03/02 00:19:04;;;;;;;4.55;1.55;;;-3.30;93.50;;;;;;21067189;28;20052;-59
2022/03/02 00:29:07;;;;;;;3.72;1.30;;;-3.30;93.50;;;;;;21065573;28;20093;-53
2022/03/02 00:39:16;;;;;;;2.78;1.60;;;-3.40;93.30;;;;;;21067628;28;20032;-51
2022/03/02 00:49:20;;;;;;;2.85;1.33;;;-3.40;93.20;;;;;;21063928;28;20040;-52
2022/03/02 00:59:22;;;;;;;2.42;1.10;;;-3.30;93.40;;;;;;21063722;28;20109;-52
2022/03/02 01:09:26;;;;;;;2.67;0.93;;;-3.30;93.10;;;;;;21063992;28;20113;-52
2022/03/02 01:19:28;;;;;;;2.08;1.00;;;-3.40;92.20;;;;;;21063473;28;20172;-54
2022/03/02 01:29:34;;;;;;;2.45;1.20;;;-3.40;92.90;;;;;;21063397;28;20040;-54
2022/03/02 01:39:36;;;;;;;2.55;0.80;;;-3.40;93.10;;;;;;21062438;28;20470;-53
2022/03/02 01:49:39;;;;;;;1.67;0.70;;;-3.50;92.30;;;;;;21075580;28;20040;-55
2022/03/02 01:59:42;;;;;;;1.23;0.57;;;-3.50;92.00;;;;;;21076876;28;20582;-55
2022/03/02 02:09:45;;;;;;;2.20;0.50;;;-3.50;91.60;;;;;;21076059;28;20066;-56
2022/03/02 02:19:47;;;;;;;1.33;0.50;;;-3.50;91.50;;;;;;21076146;28;20032;-52
2022/03/02 02:29:51;;;;;;;3.10;0.95;;;-3.60;91.50;;;;;;21074873;28;20032;-52
2022/03/02 02:40:03;;;;;;;0.98;0.30;;;-3.70;90.80;;;;;;21057723;28;20032;-53
2022/03/02 02:50:18;;;;;;;0.50;0.20;;;-3.60;90.40;;;;;;21073761;28;20061;-54
2022/03/02 03:00:22;;;;;;;1.30;0.60;;;-3.60;90.50;;;;;;21070628;28;20055;-53
2022/03/02 03:10:25;;;;;;;1.65;0.90;;;-3.80;91.30;;;;;;21071131;28;20032;-54
2022/03/02 03:20:29;;;;;;;3.05;1.30;;;-3.80;92.00;;;;;;21070555;28;20032;-54
2022/03/02 03:30:32;;;;;;;3.92;1.77;;;-3.90;91.50;;;;;;21070392;28;20039;-54
2022/03/02 03:40:35;;;;;;;2.53;1.13;;;-3.80;91.70;;;;;;21069665;28;20040;-53
2022/03/02 03:50:39;;;;;;;2.53;1.20;;;-3.60;91.60;;;;;;21068353;28;20188;-52
2022/03/02 04:00:42;;;;;;;1.88;1.02;;;-3.90;92.30;;;;;;21067861;28;20032;-57
2022/03/02 04:10:45;;;;;;;4.13;1.80;;;-4.00;92.40;;;;;;21066567;28;20040;-56
2022/03/02 04:20:48;;;;;;;3.38;1.80;;;-4.00;92.30;;;;;;21066094;28;20093;-53
2022/03/02 04:30:51;;;;;;;4.10;1.63;;;-4.00;93.20;;;;;;21065620;28;20081;-50
2022/03/02 04:40:53;;;;;;;2.83;0.80;;;-4.10;92.80;;;;;;21048416;28;20058;-54
2022/03/02 04:50:56;;;;;;;2.03;0.70;;;-4.10;92.80;;;;;;21065984;28;20089;-52
2022/03/02 05:00:59;;;;;;;1.70;0.70;;;-3.90;91.40;;;;;;21064517;28;20028;-53
2022/03/02 05:11:01;;;;;;;2.92;0.85;;;-3.90;91.60;;;;;;21065464;28;20351;-53
2022/03/02 05:21:04;;;;;;;2.13;1.10;;;-3.90;92.10;;;;;;21073623;28;20035;-55
2022/03/02 05:31:07;;;;;;;3.47;1.15;;;-4.10;91.90;;;;;;21081201;28;20059;-52
2022/03/02 05:41:09;;;;;;;2.45;0.93;;;-4.20;91.10;;;;;;21062386;28;20040;-54
2022/03/02 05:51:12;;;;;;;4.10;1.75;;;-4.20;91.40;;;;;;21077955;28;20101;-57
2022/03/02 06:01:15;;;;;;;2.88;1.40;;;-4.10;91.90;;;;;;21077875;28;20040;-50
2022/03/02 06:11:17;;;;;;;2.70;1.17;;;-4.00;92.20;;;;;;21076558;28;20140;-53
2022/03/02 06:21:32;;;;;;;1.55;0.90;;;-4.00;91.60;;;;;;21075588;28;20109;-50
2022/03/02 06:31:34;;;;;;;3.00;1.00;;;-4.00;91.80;;;;;;21074945;28;20036;-53
2022/03/02 06:42:11;;;;;;;1.83;0.73;;;-3.80;91.80;;;;;;21075848;28;20032;-52
2022/03/02 06:52:19;;;;;;;2.78;1.05;;;-3.60;91.50;;;;;;21075350;28;20036;-55
2022/03/02 07:02:31;;;;;;;3.03;1.10;;;-3.50;91.00;;;;;;21075478;28;20043;-56
2022/03/02 07:12:34;;;;;;;1.88;0.90;;;-3.20;90.80;;;;;;21075765;28;20032;-54
2022/03/02 07:22:47;;;;;;;1.88;1.10;;;-2.80;90.70;;;;;;21073603;28;20032;-55
2022/03/02 07:32:59;;;;;;;2.90;0.93;;;-2.20;89.70;;;;;;21072501;28;20513;-55
2022/03/02 07:43:02;;;;;;;2.13;1.10;;;-1.50;88.00;;;;;;21070343;28;20391;-59
2022/03/02 07:53:06;;;;;;;3.85;1.90;;;-0.20;86.90;;;;;;21068661;28;20495;-57
2022/03/02 08:03:10;;;;;;;6.93;3.70;;;1.00;81.10;;;;;;21067980;28;20036;-58
2022/03/02 08:13:14;;;;;;;7.00;3.70;;;2.40;84.50;;;;;;21066901;28;20032;-55
2022/03/02 08:23:20;;;;;;;6.30;3.67;;;3.40;83.40;;;;;;21066214;28;20040;-57
2022/03/02 08:33:29;;;;;;;6.70;3.70;;;4.20;79.20;;;;;;21065709;28;20471;-56
2022/03/02 08:43:35;;;;;;;4.47;2.92;;;4.70;75.30;;;;;;21064811;28;20036;-58
2022/03/02 08:53:40;;;;;;;6.13;3.70;;;5.40;73.00;;;;;;21064175;28;20044;-57
2022/03/02 09:03:47;;;;;;;5.72;3.30;;;6.10;75.70;;;;;;21064062;28;20028;-59
2022/03/02 09:13:50;;;;;;;3.67;2.72;;;7.00;68.70;;;;;;21063521;28;20441;-60
2022/03/02 09:23:55;;;;;;;8.57;2.72;;;7.50;64.40;;;;;;21047930;28;20097;-59
2022/03/02 09:33:58;;;;;;;4.30;2.80;;;7.70;66.20;;;;;;21063442;28;20054;-56
2022/03/02 09:44:05;;;;;;;4.60;2.85;;;7.40;63.40;;;;;;21062221;28;20101;-57
2022/03/02 09:54:09;;;;;;;5.95;3.63;;;6.80;62.30;;;;;;21062220;28;20114;-59
2022/03/02 10:04:21;;;;;;;6.78;4.00;;;7.20;66.40;;;;;;21066273;28;20044;-56
2022/03/02 10:14:24;;;;;;;7.75;3.70;;;7.70;62.80;;;;;;21076400;28;20028;-59
2022/03/02 10:24:32;;;;;;;9.45;4.55;;;7.60;65.00;;;;;;21076058;28;20040;-57
2022/03/02 10:34:36;;;;;;;9.25;5.25;;;7.70;67.80;;;;;;21074910;28;20043;-58
2022/03/02 10:45:04;;;;;;;7.55;4.40;;;7.90;68.10;;;;;;21074034;28;20036;-57
2022/03/02 10:55:13;;;;;;;12.82;4.78;;;8.10;67.20;;;;;;21073632;28;20134;-58
2022/03/02 11:05:18;;;;;;;9.85;5.38;;;7.90;68.20;;;;;;21072488;28;20109;-56
2022/03/02 11:15:20;;;;;;;10.00;5.80;;;8.10;68.80;;;;;;21070680;28;20541;-58
2022/03/02 11:25:47;;;;;;;8.02;4.85;;;8.20;68.00;;;;;;21071057;28;20036;-58
2022/03/02 11:35:51;;;;;;;9.43;5.22;;;8.30;66.10;;;;;;20795967;28;20045;-58
2022/03/02 11:45:58;;;;;;;7.70;5.10;;;8.40;66.50;;;;;;20795266;28;20041;-57
2022/03/02 11:56:02;;;;;;;7.68;5.35;;;8.60;66.30;;;;;;20794254;28;20139;-59
2022/03/02 12:06:06;;;;;;;10.38;5.90;;;9.10;68.80;;;;;;20862308;28;20509;-58
2022/03/02 12:16:08;;;;;;;10.35;5.80;;;9.70;65.90;;;;;;21066808;28;20097;-59
2022/03/02 12:26:12;;;;;;;10.52;6.78;;;9.00;66.70;;;;;;21067554;28;20531;-57
2022/03/02 12:36:15;;;;;;;12.95;7.65;;;8.60;68.40;;;;;;21065628;28;20040;-58
2022/03/02 12:46:18;;;;;;;17.60;9.40;;;7.70;71.70;;;;;;21065392;28;20097;-59
2022/03/02 12:56:21;;;;;;;13.82;9.00;;;7.50;74.90;;;;;;21066228;28;20051;-57
2022/03/02 13:06:30;;;;;;;21.10;9.30;;;7.40;73.90;;;;;;21064614;28;20495;-54
2022/03/02 13:16:40;;;;;;;17.15;9.13;;;7.10;75.20;;;;;;21047575;28;20070;-57
2022/03/02 13:27:05;;;;;;;15.97;9.00;;;7.00;76.50;;;;;;21063876;28;20085;-57
2022/03/02 13:37:07;;;;;;;20.92;9.90;;;6.80;77.40;;;;;;21063974;28;20028;-56
2022/03/02 13:47:11;;;;;;;17.77;9.85;;;6.60;77.40;;;;;;21079556;28;20036;-58
2022/03/02 13:57:22;;;;;;;23.40;10.40;;;6.40;78.70;;;;;;21079066;28;20453;-57
2022/03/02 14:07:30;;;;;;;19.08;9.80;;;6.20;79.80;;;;;;21077855;28;20028;-54
2022/03/02 14:17:35;;;;;;;14.00;8.43;;;6.20;80.10;;;;;;21076858;28;20053;-57
2022/03/02 14:27:39;;;;;;;16.15;8.63;;;6.60;77.60;;;;;;21076468;28;20092;-58
2022/03/02 14:37:45;;;;;;;15.20;8.82;;;6.40;77.90;;;;;;21074328;28;20101;-57
2022/03/02 14:48:06;;;;;;;14.90;9.02;;;6.10;76.10;;;;;;21075646;28;20040;-54
2022/03/02 14:58:20;;;;;;;;;;;5.70;77.00;;;;;;21074342;28;20457;-58
2022/03/02 15:08:28;;;;;;;14.68;7.95;;;5.60;77.30;;;;;;21072481;28;19912;-57
2022/03/02 15:18:31;;;;;;;17.13;7.78;;;5.50;77.00;;;;;;21071685;28;20376;-56
2022/03/02 15:28:34;;;;;;;14.57;7.85;;;5.30;76.80;;;;;;21070825;28;20487;-57
2022/03/02 15:38:37;;;;;;;12.90;7.35;;;5.20;76.70;;;;;;21054186;28;20437;-55
2022/03/02 15:48:41;;;;;;;15.63;8.32;;;4.80;76.40;;;;;;21070598;28;20096;-57
2022/03/02 15:58:47;;;;;;;19.95;7.97;;;4.50;77.70;;;;;;21068181;28;20077;-57
2022/03/02 16:08:50;;;;;;;12.30;7.50;;;4.20;79.70;;;;;;21067120;28;20444;-56
2022/03/02 16:19:06;;;;;;;14.60;8.00;;;3.90;79.10;;;;;;21067439;28;20148;-57
2022/03/02 16:29:10;;;;;;;13.48;8.30;;;3.40;80.30;;;;;;21066631;28;20365;-55
2022/03/02 16:39:12;;;;;;;18.17;9.55;;;3.00;83.60;;;;;;21067052;28;20101;-55
2022/03/02 16:49:15;;;;;;;17.98;8.43;;;2.60;84.40;;;;;;21065449;28;20089;-53
2022/03/02 16:59:17;;;;;;;14.13;8.23;;;2.30;83.60;;;;;;21064713;28;20061;-54
2022/03/02 17:09:22;;;;;;;19.42;9.13;;;1.90;86.30;;;;;;21047826;28;20086;-57
2022/03/02 17:19:25;;;;;;;17.73;9.27;;;1.50;88.10;;;;;;21077513;28;20129;-56
2022/03/02 17:29:28;;;;;;;17.80;9.02;;;1.30;88.50;;;;;;21064108;28;20040;-58
2022/03/02 17:39:31;;;;;;;18.70;9.68;;;1.20;91.00;;;;;;21079938;28;20058;-57
2022/03/02 17:49:35;;;;;;;18.00;9.52;;;0.90;91.20;;;;;;21079393;28;20093;-53
2022/03/02 17:59:41;;;;;;;17.85;9.75;;;0.90;91.40;;;;;;21078679;28;20113;-53
2022/03/02 18:09:44;;;;;;;18.15;9.77;;;0.80;91.90;;;;;;21077483;28;20434;-56
2022/03/02 18:19:47;;;;;;;17.60;9.52;;;0.60;92.50;;;;;;21076667;28;20036;-57
2022/03/02 18:29:50;;;;;;;18.20;9.27;;;0.60;92.60;;;;;;21075490;28;20024;-57
2022/03/02 18:39:54;;;;;;;18.95;9.50;;;0.60;92.50;;;;;;21075024;28;20040;-56
2022/03/02 18:50:14;;;;;;;11.27;6.50;;;0.60;92.60;;;;;;21060684;28;20481;-56
2022/03/02 19:00:17;;;;;;;15.77;8.43;;;0.60;92.90;;;;;;21073238;28;20044;-57
2022/03/02 19:10:21;;;;;;;16.80;8.30;;;0.60;93.40;;;;;;21055981;28;20054;-56
2022/03/02 19:20:24;;;;;;;14.15;7.50;;;0.60;93.30;;;;;;21071657;28;20032;-56
2022/03/02 19:30:27;;;;;;;16.40;8.38;;;0.70;93.30;;;;;;21070643;28;20036;-57
2022/03/02 19:40:31;;;;;;;17.30;8.40;;;0.60;93.90;;;;;;21069003;28;20036;-56
2022/03/02 19:50:37;;;;;;;14.60;8.05;;;0.70;94.40;;;;;;21068682;28;20491;-57
2022/03/02 20:00:40;;;;;;;15.02;8.18;;;0.60;94.40;;;;;;21069286;28;20043;-55
2022/03/02 20:10:44;;;;;;;18.65;9.50;;;0.50;94.80;;;;;;21068697;28;20085;-54
2022/03/02 20:20:47;;;;;;;17.23;9.57;;;0.50;94.80;;;;;;21066676;28;20040;-53
2022/03/02 20:30:52;;;;;;;15.98;8.63;;;0.40;95.40;;;;;;21064639;28;20101;-55
2022/03/02 20:40:57;;;;;;;22.83;9.85;;;0.30;95.90;;;;;;21049853;28;20493;-56
2022/03/02 20:50:59;;;;;;;21.13;9.35;;;0.30;95.80;;;;;;21064696;28;20044;-56
2022/03/02 21:01:03;;;;;;;20.25;8.63;;;0.20;96.70;;;;;;21063979;28;20035;-56
2022/03/02 21:11:07;;;;;;;16.45;8.65;;;0.30;95.70;;;;;;21064495;28;20433;-57
2022/03/02 21:21:15;;;;;;;20.13;8.63;;;0.30;95.70;;;;;;21063074;28;20085;-53
2022/03/02 21:31:18;;;;;;;19.10;9.98;;;0.20;95.80;;;;;;21062873;28;20081;-57
2022/03/02 21:41:23;;;;;;;14.13;7.82;;;0.00;96.90;;;;;;21062719;28;20061;-56
2022/03/02 21:51:27;;;;;;;14.88;7.13;;;0.00;96.70;;;;;;21061990;28;20074;-57
2022/03/02 22:01:30;;;;;;;13.45;6.70;;;0.10;96.50;;;;;;21067787;28;20441;-56
2022/03/02 22:11:32;;;;;;;11.18;6.38;;;0.00;96.80;;;;;;21076915;28;20073;-56
2022/03/02 22:21:35;;;;;;;16.00;8.27;;;0.00;96.30;;;;;;21076392;28;20442;-56
2022/03/02 22:31:39;;;;;;;13.95;6.35;;;0.00;96.80;;;;;;21075055;28;20032;-57
2022/03/02 22:41:43;;;;;;;10.20;6.03;;;-0.20;96.80;;;;;;21074255;28;20039;-55
2022/03/02 22:51:46;;;;;;;12.27;6.75;;;-0.10;97.00;;;;;;21074706;28;20461;-57
2022/03/02 23:22:30;;;;;;;8.30;4.47;;;0.20;96.50;;;;;;21071662;28;19922;-54
2022/03/02 23:32:32;;;;;;;14.35;7.90;;;0.20;96.50;;;;;;21071496;28;20036;-56
2022/03/02 23:42:37;;;;;;;15.77;8.20;;;0.10;96.00;;;;;;21069722;28;20044;-56
2022/03/02 23:52:40;;;;;;;15.27;7.38;;;0.10;97.10;;;;;;21068904;28;20109;-56
